createdAt,value
2019-04-21T00:03:18.150Z,86.40
2019-04-21T00:08:10.907Z,86.40
2019-04-21T00:12:40.529Z,87.60
2019-04-21T00:30:56.865Z,90.70
2019-04-21T00:35:17.606Z,91.20
2019-04-21T00:44:55.673Z,92.80
2019-04-21T00:49:26.956Z,92.60
2019-04-21T00:54:13.448Z,92.80
2019-04-21T01:03:20.604Z,93.80
2019-04-21T01:07:50.712Z,93.70
2019-04-21T01:39:53.226Z,95.50
2019-04-21T01:48:58.013Z,96.40
2019-04-21T01:58:18.281Z,97.40
2019-04-21T02:12:14.684Z,97.50
2019-04-21T02:30:49.252Z,98.00
2019-04-21T02:35:20.805Z,98.50
2019-04-21T02:58:28.752Z,98.60
2019-04-21T03:07:51.391Z,99.60
2019-04-21T03:16:42.652Z,99.30
2019-04-21T03:48:38.505Z,99.90
2019-04-21T03:53:05.240Z,99.90
2019-04-21T04:16:24.893Z,99.90
2019-04-21T04:25:33.799Z,99.90
2019-04-21T04:30:12.538Z,99.90
2019-04-21T04:34:47.784Z,99.90
2019-04-21T04:44:03.223Z,99.90
2019-04-21T05:11:23.391Z,99.90
2019-04-21T05:15:53.699Z,99.90
2019-04-21T05:24:44.295Z,99.60
2019-04-21T05:34:03.124Z,99.90
2019-04-21T05:43:25.608Z,99.20
2019-04-21T05:48:11.899Z,98.60
2019-04-21T06:01:47.065Z,99.60
2019-04-21T06:06:21.992Z,98.80
2019-04-21T06:29:06.931Z,97.10
2019-04-21T06:42:54.058Z,95.70
2019-04-21T06:51:55.977Z,95.20
2019-04-21T06:56:31.568Z,94.50
2019-04-21T07:05:35.842Z,93.70
2019-04-21T07:10:22.818Z,93.50
2019-04-21T07:28:17.721Z,92.90
2019-04-21T07:37:33.233Z,91.80
2019-04-21T07:41:59.560Z,91.60
2019-04-21T07:51:11.180Z,91.80
2019-04-21T08:09:12.375Z,90.30
2019-04-21T08:13:55.208Z,88.40
2019-04-21T08:31:56.499Z,85.60
2019-04-21T08:36:20.772Z,86.00
2019-04-21T08:40:55.904Z,84.40
2019-04-21T08:49:49.039Z,84.50
2019-04-21T08:59:21.863Z,79.70
2019-04-21T09:04:07.530Z,76.20
2019-04-21T09:08:55.430Z,75.10
2019-04-21T09:13:24.839Z,72.40
2019-04-21T09:17:58.023Z,71.70
2019-04-21T09:22:30.771Z,71.00
2019-04-21T09:27:11.327Z,67.30
2019-04-21T09:31:31.973Z,69.60
2019-04-21T09:36:02.584Z,69.60
2019-04-21T09:54:21.198Z,67.30
2019-04-21T10:12:19.997Z,66.30
2019-04-21T10:21:40.265Z,62.50
2019-04-21T10:35:09.342Z,58.00
2019-04-21T10:44:13.497Z,58.90
2019-04-21T10:58:16.171Z,57.50
2019-04-21T11:07:19.644Z,57.90
2019-04-21T11:16:26.947Z,59.30
2019-04-21T11:20:53.161Z,57.00
2019-04-21T11:25:06.993Z,58.80
2019-04-21T11:29:33.083Z,58.00
2019-04-21T11:33:53.375Z,58.40
2019-04-21T11:47:16.879Z,55.00
2019-04-21T11:51:37.325Z,55.80
2019-04-21T12:00:17.586Z,53.80
2019-04-21T12:04:43.492Z,55.60
2019-04-21T12:09:00.754Z,56.00
2019-04-21T12:13:26.337Z,54.70
2019-04-21T12:17:46.267Z,54.90
2019-04-21T12:22:21.574Z,53.20
2019-04-21T12:30:55.830Z,51.70
2019-04-21T12:35:28.419Z,51.50
2019-04-21T12:40:03.160Z,52.30
2019-04-21T12:49:09.787Z,53.10
2019-04-21T12:53:41.770Z,53.40
2019-04-21T12:58:15.445Z,52.10
2019-04-21T13:02:47.735Z,51.30
2019-04-21T13:07:21.520Z,52.10
2019-04-21T13:16:27.592Z,53.00
2019-04-21T13:21:02.173Z,51.80
2019-04-21T13:30:04.264Z,51.70
2019-04-21T13:34:40.005Z,51.20
2019-04-21T13:48:57.006Z,50.80
2019-04-21T13:53:28.567Z,51.30
2019-04-21T14:02:36.543Z,51.20
2019-04-21T14:16:32.038Z,51.50
2019-04-21T14:25:37.457Z,51.10
2019-04-21T14:30:08.506Z,51.80
2019-04-21T14:34:41.883Z,52.10
2019-04-21T14:43:48.083Z,60.90
2019-04-21T14:53:27.703Z,62.10
2019-04-21T14:58:01.699Z,61.10
2019-04-21T15:07:30.941Z,64.70
2019-04-21T15:12:03.342Z,65.00
2019-04-21T15:16:36.719Z,66.30
2019-04-21T15:21:08.038Z,66.60
2019-04-21T15:29:44.876Z,61.40
2019-04-21T15:38:49.665Z,61.80
2019-04-21T15:52:49.792Z,68.20
2019-04-21T15:57:31.400Z,72.40
2019-04-21T16:02:14.903Z,74.10
2019-04-21T16:06:47.903Z,69.60
2019-04-21T16:11:25.959Z,71.90
2019-04-21T16:20:32.329Z,72.00
2019-04-21T16:25:06.484Z,74.60
2019-04-21T16:34:12.060Z,78.80
2019-04-21T16:47:53.593Z,92.20
2019-04-21T17:06:17.394Z,99.50
2019-04-21T17:20:13.561Z,99.90
2019-04-21T17:24:35.786Z,99.90
2019-04-21T17:29:10.449Z,99.90
2019-04-21T17:38:16.301Z,99.90
2019-04-21T17:42:59.956Z,99.90
2019-04-21T17:47:54.480Z,99.90
2019-04-21T17:52:45.998Z,99.90
2019-04-21T17:57:32.294Z,99.90
2019-04-21T18:01:54.572Z,99.90
2019-04-21T18:11:00.300Z,99.90
2019-04-21T18:15:37.158Z,99.90
2019-04-21T18:29:01.210Z,99.90
2019-04-21T18:33:37.084Z,99.90
2019-04-21T18:38:20.791Z,99.90
2019-04-21T18:43:30.818Z,99.90
2019-04-21T18:47:48.854Z,99.90
2019-04-21T18:57:07.696Z,99.90
2019-04-21T19:06:11.471Z,99.90
2019-04-21T19:11:01.829Z,99.90
2019-04-21T19:15:30.972Z,99.90
2019-04-21T19:20:11.768Z,99.90
2019-04-21T19:33:36.124Z,99.90
2019-04-21T19:51:52.252Z,99.90
2019-04-21T19:56:15.935Z,99.90
2019-04-21T20:10:14.485Z,99.90
2019-04-21T20:51:18.069Z,99.90
2019-04-21T21:04:47.989Z,99.90
2019-04-21T21:14:07.491Z,99.90
2019-04-21T21:23:11.637Z,99.90
2019-04-21T21:27:45.605Z,99.90
2019-04-21T21:32:27.310Z,99.90
2019-04-21T21:50:29.760Z,99.90
2019-04-21T22:08:34.462Z,99.90
2019-04-21T22:22:22.861Z,99.90
2019-04-21T22:31:22.591Z,99.90
2019-04-21T22:36:44.714Z,99.90
2019-04-21T22:41:15.813Z,99.90
2019-04-21T22:45:40.995Z,99.90
2019-04-21T23:03:58.588Z,99.90
2019-04-21T23:13:05.629Z,99.90
2019-04-21T23:17:54.301Z,99.90
2019-04-21T23:54:01.820Z,99.90
